Main page
METAR-TAF:

METAR-TAF

Airports :

Tripoli, Libya

Mitiga International Airport

latitude: 32-54N, longitude: 13-17E, elevation: 11 m

Current weather observation

The report was made 47 minutes ago, at 19:50 UTC
Wind 10 kt from the East
Temperature 27°C
Humidity 74%
Pressure 1013 hPa
Visibility: 7000 m
Clear sky

METAR: HLLM 201950Z 10010KT 7000 SKC 27/22 Q1013

Time: 22:37 (20:37 UTC)

Forecast

The report was made 9 hours and 37 minutes ago, at 11:00 UTC
Forecast valid from 20 at 12 UTC to 21 at 12 UTC
Wind 17 kt from the East
Visibility 10 km or more
no clouds below 1500 m and no cumulonimbus

TAF: HLLM 201100Z 2012/2112 08017KT CAVOK

Weather observations and forecasts of more than 4000 airports (METAR and TAF reports).

The available stations are represented by yellow and red dots on the map.

Hover mouse over dot to see the name of the station.

Then click to see weather observations and forecasts.

To change the map : click on the green buttons with a black cross to zoom in, on the green button with a dash to zoom out, or on the green arrows for adjacent maps.


METAR-TAF: